Time;durP1;ratioP1;P1;durP2;ratioP2;P2;SDS_P1;SDS_P2;PMS_P1;PMS_P2;Temp;Humidity;BMP_temperature;BMP_pressure;BME280_temperature;BME280_humidity;BME280_pressure;Samples;Min_cycle;Max_cycle;Signal;HPM_P1;HPM_P2
2022/06/18 00:00:20;;;;;;;10.82;6.55;;;;;;;18.62;59.03;100739.39;1824650;78;20907;-91
2022/06/18 00:02:46;;;;;;;9.10;6.22;;;;;;;18.63;59.39;100749.05;1824638;77;20880;-89
2022/06/18 00:05:15;;;;;;;11.15;6.72;;;;;;;18.63;59.67;100754.83;1825829;78;20896;-88
2022/06/18 00:07:48;;;;;;;12.58;6.50;;;;;;;18.64;59.82;100748.06;1794103;78;21004;-91
2022/06/18 00:10:20;;;;;;;8.13;6.00;;;;;;;18.68;59.98;100746.47;1825755;77;21205;-91
2022/06/18 00:15:37;;;;;;;10.03;6.62;;;;;;;18.70;60.35;100752.45;1823192;78;20939;-91
2022/06/18 00:18:11;;;;;;;12.75;6.95;;;;;;;18.71;60.52;100748.33;1822851;78;20959;-90
2022/06/18 00:20:39;;;;;;;13.13;7.87;;;;;;;18.73;60.52;100747.70;1822932;78;20887;-91
2022/06/18 00:23:14;;;;;;;17.12;8.20;;;;;;;18.75;60.61;100745.75;1822863;78;20927;-90
2022/06/18 00:25:44;;;;;;;12.33;8.83;;;;;;;18.78;60.66;100742.83;1822823;78;20899;-88
2022/06/18 00:28:22;;;;;;;12.88;8.65;;;;;;;18.79;60.79;100751.66;1822233;77;21042;-90
2022/06/18 00:30:50;;;;;;;14.45;8.58;;;;;;;18.81;60.86;100743.05;1822642;78;20927;-90
2022/06/18 00:33:18;;;;;;;18.80;9.53;;;;;;;18.82;60.76;100746.88;1822914;78;20860;-90
2022/06/18 00:35:47;;;;;;;11.65;10.03;;;;;;;18.82;60.72;100737.58;1822586;78;21232;-90
2022/06/18 00:38:28;;;;;;;13.72;10.63;;;;;;;18.84;60.52;100741.43;1822446;78;21421;-89
2022/06/18 00:40:56;;;;;;;16.82;10.48;;;;;;;18.86;60.42;100733.33;1822813;78;20919;-87
2022/06/18 00:43:29;;;;;;;16.48;10.95;;;;;;;18.89;60.35;100731.70;1822710;78;20971;-90
2022/06/18 00:46:02;;;;;;;16.57;10.90;;;;;;;18.89;60.46;100731.20;1822880;78;20915;-90
2022/06/18 00:48:55;;;;;;;16.23;10.48;;;;;;;18.91;60.56;100733.23;1822655;78;21891;-90
2022/06/18 00:51:34;;;;;;;16.10;9.20;;;;;;;18.90;60.60;100728.91;1822338;78;20955;-91
2022/06/18 00:54:21;;;;;;;14.58;10.40;;;;;;;18.93;61.15;100733.92;1822113;78;20875;-90
2022/06/18 00:57:12;;;;;;;11.68;9.68;;;;;;;18.95;61.39;100741.77;1821998;77;20919;-90
2022/06/18 00:59:52;;;;;;;16.73;10.32;;;;;;;18.94;61.58;100744.05;1822188;78;20872;-89
2022/06/18 01:02:23;;;;;;;13.03;9.53;;;;;;;18.93;61.69;100744.55;1822157;78;21394;-91
2022/06/18 01:04:52;;;;;;;17.98;10.25;;;;;;;18.91;62.17;100742.53;1820945;78;20852;-92
2022/06/18 01:07:34;;;;;;;16.12;10.05;;;;;;;18.87;62.67;100737.14;1822457;78;21369;-89
2022/06/18 01:10:00;;;;;;;17.55;10.35;;;;;;;18.84;63.07;100736.11;1821777;78;20883;-90
2022/06/18 01:12:26;;;;;;;15.38;9.25;;;;;;;18.81;62.63;100737.74;1822694;78;20955;-89
2022/06/18 01:15:04;;;;;;;15.05;10.28;;;;;;;18.78;62.47;100740.16;1822385;78;21116;-90
2022/06/18 01:17:35;;;;;;;16.50;10.63;;;;;;;18.75;62.43;100736.45;1790249;78;20978;-88
2022/06/18 01:20:04;;;;;;;19.25;10.70;;;;;;;18.73;62.60;100733.59;1822339;78;20915;-89
2022/06/18 01:22:46;;;;;;;18.17;10.13;;;;;;;18.70;62.86;100736.51;1822252;78;20860;-90
2022/06/18 01:25:12;;;;;;;18.92;10.58;;;;;;;18.67;63.06;100738.97;1822212;78;20923;-89
2022/06/18 01:27:41;;;;;;;15.18;9.85;;;;;;;18.64;63.13;100738.77;1822323;78;21142;-90
2022/06/18 01:30:14;;;;;;;15.10;9.98;;;;;;;18.61;63.22;100733.74;1820790;78;21361;-90
2022/06/18 01:32:45;;;;;;;22.33;10.80;;;;;;;18.58;63.40;100741.98;1822663;78;20959;-90
2022/06/18 01:35:12;;;;;;;15.18;10.32;;;;;;;18.56;63.69;100743.10;1822139;77;21060;-89
2022/06/18 01:37:40;;;;;;;14.38;10.50;;;;;;;18.55;63.79;100744.09;1818991;78;20836;-90
2022/06/18 01:40:12;;;;;;;14.15;10.45;;;;;;;18.51;63.87;100748.01;1819614;78;21238;-90
2022/06/18 01:42:44;;;;;;;19.02;10.95;;;;;;;18.49;63.91;100748.14;1822128;78;21321;-90
2022/06/18 01:45:24;;;;;;;18.70;10.35;;;;;;;18.48;63.95;100753.61;1822763;78;20872;-90
2022/06/18 01:48:00;;;;;;;14.20;11.00;;;;;;;18.43;64.28;100754.86;1821974;77;21488;-90
2022/06/18 01:50:54;;;;;;;14.13;10.35;;;;;;;18.42;64.38;100764.28;1822097;78;20911;-89
2022/06/18 01:53:41;;;;;;;16.40;11.55;;;;;;;18.40;64.51;100764.41;1822227;78;21147;-91
2022/06/18 01:56:22;;;;;;;15.32;10.28;;;;;;;18.39;64.51;100770.72;1821460;78;20880;-91
2022/06/18 01:59:03;;;;;;;17.20;10.98;;;;;;;18.37;64.41;100769.19;1789566;78;20888;-91
2022/06/18 02:01:39;;;;;;;15.18;11.93;;;;;;;18.36;64.49;100767.49;1822425;78;20903;-90
2022/06/18 02:04:07;;;;;;;13.65;10.98;;;;;;;18.35;64.37;100770.64;1822584;78;20892;-89
2022/06/18 02:06:36;;;;;;;18.62;10.82;;;;;;;18.35;64.38;100767.98;1822079;78;21130;-89
2022/06/18 02:09:12;;;;;;;12.93;10.05;;;;;;;18.34;64.52;100761.48;1821965;78;21018;-90
2022/06/18 02:11:40;;;;;;;16.57;10.28;;;;;;;18.34;64.75;100756.17;1822171;78;20840;-90
2022/06/18 02:14:09;;;;;;;23.60;10.13;;;;;;;18.33;64.90;100759.81;1822144;78;20828;-88
2022/06/18 02:16:43;;;;;;;16.65;11.12;;;;;;;18.32;64.92;100760.77;1822279;78;21009;-90
2022/06/18 02:19:11;;;;;;;16.27;9.58;;;;;;;18.31;65.03;100751.98;1821917;78;21126;-89
2022/06/18 02:21:42;;;;;;;15.75;9.83;;;;;;;18.33;65.01;100756.66;1821988;78;20860;-90
2022/06/18 02:24:09;;;;;;;17.92;11.57;;;;;;;18.34;65.16;100753.52;1822027;78;21399;-90
2022/06/18 02:26:36;;;;;;;21.87;11.38;;;;;;;18.34;65.20;100754.84;1822012;78;20840;-90
2022/06/18 02:29:05;;;;;;;13.53;9.53;;;;;;;18.32;65.32;100761.64;1822165;78;20880;-90
2022/06/18 02:31:34;;;;;;;16.32;10.00;;;;;;;18.33;65.33;100753.18;1822126;78;21129;-90
2022/06/18 02:34:07;;;;;;;18.17;10.30;;;;;;;18.35;65.45;100758.70;1821146;78;20982;-90
2022/06/18 02:36:36;;;;;;;12.75;10.40;;;;;;;18.37;65.58;100763.88;1822177;78;20955;-90
2022/06/18 02:39:34;;;;;;;14.13;9.65;;;;;;;18.40;65.83;100757.78;1822046;78;20911;-90
2022/06/18 02:42:11;;;;;;;20.68;10.30;;;;;;;18.42;65.95;100765.12;1822015;78;20935;-90
2022/06/18 02:44:39;;;;;;;14.87;10.05;;;;;;;18.44;66.16;100763.66;1821936;78;21069;-89
2022/06/18 02:47:08;;;;;;;13.68;10.68;;;;;;;18.46;66.26;100767.52;1822021;78;20888;-90
2022/06/18 02:49:43;;;;;;;13.00;9.58;;;;;;;18.45;66.17;100762.67;1822577;78;20939;-88
2022/06/18 02:52:10;;;;;;;18.67;10.53;;;;;;;18.46;65.84;100768.34;1790998;78;21303;-89
2022/06/18 02:54:36;;;;;;;20.35;10.00;;;;;;;18.46;65.68;100772.33;1822499;78;20891;-89
2022/06/18 02:57:09;;;;;;;13.90;9.40;;;;;;;18.48;65.69;100773.53;1822324;78;21178;-89
2022/06/18 02:59:35;;;;;;;16.40;9.68;;;;;;;18.48;65.78;100769.05;1822028;77;20963;-90
2022/06/18 03:02:02;;;;;;;16.25;9.20;;;;;;;18.49;65.78;100773.86;1822224;78;21341;-90
2022/06/18 03:04:30;;;;;;;16.52;9.18;;;;;;;18.49;65.48;100775.19;1821978;78;20911;-89
2022/06/18 03:06:58;;;;;;;12.40;7.83;;;;;;;18.51;65.53;100779.87;1822101;78;20872;-88
2022/06/18 03:09:26;;;;;;;15.13;8.33;;;;;;;18.52;65.66;100778.88;1821983;78;21871;-90
2022/06/18 03:12:07;;;;;;;11.40;7.40;;;;;;;18.53;65.48;100782.73;1822089;78;20911;-89
2022/06/18 03:14:36;;;;;;;13.90;6.87;;;;;;;18.54;65.38;100784.89;1822299;78;20986;-89
2022/06/18 03:17:04;;;;;;;9.88;7.03;;;;;;;18.55;65.19;100791.41;1821969;78;20931;-89
2022/06/18 03:19:43;;;;;;;10.50;6.90;;;;;;;18.56;65.11;100787.76;1822147;78;20821;-89
2022/06/18 03:22:16;;;;;;;10.55;5.70;;;;;;;18.58;65.06;100788.95;1822763;78;21136;-90
2022/06/18 03:24:45;;;;;;;8.40;4.37;;;;;;;18.59;64.68;100787.50;1822547;78;20848;-88
2022/06/18 03:27:13;;;;;;;9.93;3.83;;;;;;;18.61;64.20;100785.54;1822175;78;20856;-89
2022/06/18 03:29:41;;;;;;;6.90;3.50;;;;;;;18.64;63.71;100789.23;1822015;78;20891;-88
2022/06/18 03:32:08;;;;;;;11.30;3.87;;;;;;;18.67;63.46;100794.75;1822498;78;20876;-89
2022/06/18 03:34:36;;;;;;;3.90;3.33;;;;;;;18.70;63.28;100793.63;1791183;78;20908;-89
2022/06/18 03:37:04;;;;;;;6.55;4.22;;;;;;;18.75;63.05;100794.06;1822220;78;21041;-89
2022/06/18 03:39:31;;;;;;;4.72;3.20;;;;;;;18.79;62.84;100794.17;1822920;78;20899;-89
2022/06/18 03:42:01;;;;;;;7.75;4.35;;;;;;;18.83;62.80;100795.07;1825551;78;20930;-91
2022/06/18 03:44:27;;;;;;;6.45;3.33;;;;;;;18.90;62.68;100795.34;1825635;78;20946;-88
2022/06/18 03:46:55;;;;;;;9.28;3.50;;;;;;;18.98;62.60;100793.30;1825519;78;21125;-89
2022/06/18 03:49:26;;;;;;;6.75;2.98;;;;;;;19.07;62.63;100791.60;1824371;78;20927;-90
2022/06/18 03:51:54;;;;;;;3.55;2.87;;;;;;;19.15;62.42;100790.41;1825541;78;21033;-89
2022/06/18 03:54:21;;;;;;;5.65;3.00;;;;;;;19.24;62.29;100789.03;1825712;78;20926;-89
2022/06/18 03:56:48;;;;;;;6.10;3.35;;;;;;;19.36;62.18;100789.69;1825400;78;20911;-90
2022/06/18 03:59:15;;;;;;;6.55;3.27;;;;;;;19.49;61.98;100789.87;1825168;78;21381;-89
2022/06/18 04:01:41;;;;;;;11.03;4.62;;;;;;;19.61;61.68;100792.70;1825361;78;21393;-89
2022/06/18 04:04:11;;;;;;;3.50;2.98;;;;;;;19.73;61.38;100793.37;1825805;78;21112;-88
2022/06/18 04:06:43;;;;;;;8.43;3.58;;;;;;;19.85;60.98;100797.51;1825197;78;20967;-89
2022/06/18 04:09:17;;;;;;;9.58;3.60;;;;;;;19.95;60.64;100802.30;1729013;83;21054;-89
2022/06/18 04:11:45;;;;;;;6.83;3.52;;;;;;;20.04;60.74;100792.58;1729137;83;21883;-89
2022/06/18 04:14:12;;;;;;;8.95;2.70;;;;;;;20.11;60.80;100793.66;1728899;83;20942;-89
2022/06/18 04:16:55;;;;;;;3.73;3.33;;;;;;;20.17;60.47;100801.05;1692803;83;20927;-87
2022/06/18 04:19:24;;;;;;;5.87;3.20;;;;;;;20.21;60.57;100790.91;1729076;83;20943;-89
2022/06/18 04:21:53;;;;;;;5.33;3.12;;;;;;;20.24;60.54;100795.95;1729498;83;21061;-89
2022/06/18 04:24:21;;;;;;;10.25;3.60;;;;;;;20.25;60.70;100793.63;1729115;83;21078;-89
2022/06/18 04:26:49;;;;;;;10.20;2.80;;;;;;;20.25;60.88;100793.16;1728953;83;21453;-88
2022/06/18 04:29:16;;;;;;;8.38;3.27;;;;;;;20.28;61.28;100793.34;1729333;83;20996;-88
2022/06/18 04:31:44;;;;;;;10.68;3.95;;;;;;;20.28;61.47;100798.67;1729222;83;20888;-89
2022/06/18 04:34:11;;;;;;;4.17;3.80;;;;;;;20.31;61.23;100801.52;1729348;83;20903;-88
2022/06/18 04:36:41;;;;;;;8.75;4.58;;;;;;;20.35;61.26;100804.23;1725452;83;21397;-88
2022/06/18 04:39:14;;;;;;;7.83;4.57;;;;;;;20.40;60.77;100806.77;1726955;83;20970;-88
2022/06/18 04:41:45;;;;;;;6.00;4.80;;;;;;;20.44;60.46;100811.30;1727525;83;20966;-90
2022/06/18 04:44:14;;;;;;;6.85;3.83;;;;;;;20.49;59.85;100809.84;1729181;83;21069;-89
2022/06/18 04:46:42;;;;;;;11.65;3.87;;;;;;;20.55;59.77;100816.41;1786504;78;20876;-89
2022/06/18 04:49:09;;;;;;;7.92;4.47;;;;;;;20.59;59.64;100808.48;1825481;78;21239;-89
2022/06/18 04:51:35;;;;;;;8.83;3.87;;;;;;;20.65;59.76;100817.69;1825570;78;20895;-90
2022/06/18 04:54:05;;;;;;;7.42;3.80;;;;;;;20.70;59.73;100814.91;1825643;78;20908;-87
2022/06/18 04:56:33;;;;;;;7.83;4.45;;;;;;;20.76;59.62;100816.11;1825591;78;20998;-90
2022/06/18 04:59:00;;;;;;;9.03;3.85;;;;;;;20.81;59.55;100816.98;1825566;78;20911;-90
2022/06/18 05:01:30;;;;;;;8.53;4.92;;;;;;;20.87;59.52;100824.38;1825546;78;22494;-88
2022/06/18 05:04:02;;;;;;;15.95;4.37;;;;;;;20.93;59.76;100825.09;1822087;78;20856;-87
2022/06/18 05:06:48;;;;;;;5.60;3.00;;;;;;;20.97;59.85;100822.47;1821731;78;20884;-89
2022/06/18 05:09:32;;;;;;;4.22;3.08;;;;;;;21.03;59.95;100816.52;1729002;83;21421;-90
2022/06/18 05:11:59;;;;;;;4.17;3.77;;;;;;;21.09;59.79;100817.71;1729293;83;20914;-87
2022/06/18 05:14:28;;;;;;;7.37;3.35;;;;;;;21.16;59.68;100823.26;1726910;83;21288;-87
2022/06/18 05:16:57;;;;;;;5.75;3.10;;;;;;;21.22;59.60;100824.80;1728343;83;20963;-87
2022/06/18 05:19:27;;;;;;;8.90;3.40;;;;;;;21.30;59.45;100828.88;1697653;83;20959;-87
2022/06/18 05:21:56;;;;;;;7.22;3.75;;;;;;;21.36;59.31;100831.39;1729294;83;20923;-89
2022/06/18 05:24:25;;;;;;;11.15;4.05;;;;;;;21.41;59.28;100834.48;1729747;83;20856;-88
2022/06/18 05:26:54;;;;;;;7.92;4.47;;;;;;;21.48;59.13;100830.69;1729393;83;22005;-88
2022/06/18 05:29:21;;;;;;;9.18;4.55;;;;;;;21.57;59.33;100829.73;1729243;83;20864;-89
2022/06/18 05:31:49;;;;;;;6.80;3.27;;;;;;;21.66;59.21;100827.44;1729231;83;20939;-90
2022/06/18 05:34:15;;;;;;;6.58;2.85;;;;;;;21.75;59.04;100826.98;1698185;83;20939;-87
2022/06/18 05:36:44;;;;;;;4.78;3.80;;;;;;;21.84;58.78;100830.02;1729233;83;21053;-90
2022/06/18 05:39:17;;;;;;;5.00;2.92;;;;;;;21.92;58.31;100822.05;1729778;83;21139;-88
2022/06/18 05:41:44;;;;;;;7.15;3.30;;;;;;;22.03;58.07;100830.27;1694504;83;21050;-87
2022/06/18 05:44:11;;;;;;;9.90;4.10;;;;;;;22.11;57.54;100830.27;1751383;80;20863;-88
2022/06/18 05:46:37;;;;;;;5.72;3.02;;;;;;;22.20;57.08;100836.48;1786914;80;20928;-89
2022/06/18 05:49:04;;;;;;;8.48;3.00;;;;;;;22.29;57.02;100834.70;1786579;79;20935;-87
2022/06/18 05:51:30;;;;;;;9.15;2.33;;;;;;;22.38;56.90;100836.90;1786797;79;21068;-85
2022/06/18 05:53:57;;;;;;;2.30;2.10;;;;;;;22.46;56.84;100844.44;1786440;80;20959;-88
2022/06/18 05:56:44;;;;;;;4.15;2.70;;;;;;;22.56;56.56;100843.77;1784702;79;20955;-88
2022/06/18 05:59:12;;;;;;;2.85;2.55;;;;;;;22.69;56.45;100841.95;1783634;80;21405;-88
2022/06/18 06:01:40;;;;;;;6.53;2.30;;;;;;;22.83;56.12;100843.12;1786661;79;21525;-92
2022/06/18 06:04:07;;;;;;;4.97;2.87;;;;;;;23.00;55.56;100844.00;1786990;79;21210;-89
2022/06/18 06:06:34;;;;;;;6.60;2.80;;;;;;;23.17;55.42;100844.33;1786827;80;20887;-90
2022/06/18 06:09:01;;;;;;;5.22;3.22;;;;;;;23.39;54.75;100840.63;1786731;79;20955;-89
2022/06/18 06:11:29;;;;;;;6.10;2.50;;;;;;;23.66;54.01;100839.38;1786597;80;20927;-87
2022/06/18 06:13:57;;;;;;;7.05;3.55;;;;;;;24.06;53.61;100842.92;1786743;80;20896;-90
2022/06/18 06:16:25;;;;;;;7.15;3.08;;;;;;;24.51;52.55;100835.98;1786694;80;21203;-88
2022/06/18 06:18:52;;;;;;;8.90;3.25;;;;;;;25.03;51.08;100836.59;1786628;80;21381;-90
2022/06/18 06:21:18;;;;;;;6.03;3.50;;;;;;;25.52;49.44;100839.30;1786783;79;20875;-91
2022/06/18 06:23:45;;;;;;;4.83;2.45;;;;;;;26.01;48.41;100836.56;1786608;80;20899;-92
2022/06/18 06:26:23;;;;;;;3.55;2.50;;;;;;;26.50;47.60;100841.77;1786647;80;20911;-90
2022/06/18 06:28:50;;;;;;;5.72;2.85;;;;;;;27.07;46.38;100834.14;1786840;80;21137;-92
2022/06/18 06:31:18;;;;;;;7.15;3.42;;;;;;;27.72;45.21;100831.27;1786973;80;20911;-91
2022/06/18 06:33:45;;;;;;;4.50;3.42;;;;;;;28.30;44.12;100820.92;1786848;80;20907;-90
2022/06/18 06:36:12;;;;;;;7.12;3.12;;;;;;;28.92;42.58;100823.81;1786604;80;20926;-90
2022/06/18 06:38:39;;;;;;;5.33;3.33;;;;;;;29.53;41.44;100809.75;1786549;79;20845;-90
2022/06/18 06:41:10;;;;;;;5.83;3.67;;;;;;;29.94;40.14;100823.44;1807346;77;21128;-90
2022/06/18 06:43:37;;;;;;;8.35;4.58;;;;;;;30.25;39.66;100817.24;1824234;77;20919;-89
2022/06/18 06:46:03;;;;;;;11.18;4.22;;;;;;;30.40;38.75;100822.92;1825681;78;20947;-90
2022/06/18 06:48:33;;;;;;;8.73;3.60;;;;;;;30.38;38.20;100827.72;1825539;78;20974;-89
2022/06/18 06:51:00;;;;;;;7.62;4.58;;;;;;;30.34;38.26;100821.38;1825556;78;20922;-90
2022/06/18 06:53:27;;;;;;;7.87;4.62;;;;;;;30.33;38.08;100828.38;1825616;78;21219;-91
2022/06/18 06:58:38;;;;;;;7.53;4.60;;;;;;;30.29;38.10;100823.91;1825620;78;20911;-91
2022/06/18 07:01:05;;;;;;;7.05;4.00;;;;;;;30.17;38.15;100820.22;1825605;77;20867;-90
2022/06/18 07:03:32;;;;;;;8.50;4.80;;;;;;;30.13;38.34;100822.52;1825860;78;20847;-91
2022/06/18 07:06:01;;;;;;;6.25;4.85;;;;;;;30.10;38.39;100824.31;1825807;78;21295;-90
2022/06/18 07:08:28;;;;;;;7.47;4.97;;;;;;;30.08;38.68;100821.49;1825694;77;21350;-89
2022/06/18 07:10:56;;;;;;;6.20;4.35;;;;;;;30.10;38.64;100816.70;1825487;78;20974;-91
2022/06/18 07:13:23;;;;;;;6.00;4.30;;;;;;;30.31;38.06;100825.06;1825672;77;20892;-90
2022/06/18 07:15:53;;;;;;;8.08;4.65;;;;;;;30.59;37.89;100820.58;1825817;77;21345;-89
2022/06/18 07:18:22;;;;;;;8.28;4.40;;;;;;;31.00;37.70;100816.54;1825885;78;21373;-91
2022/06/18 07:20:49;;;;;;;7.65;5.67;;;;;;;31.36;36.24;100821.70;1825661;77;21365;-90
2022/06/18 07:23:16;;;;;;;5.75;5.25;;;;;;;31.50;35.25;100813.75;1826085;78;21424;-92
2022/06/18 07:25:42;;;;;;;7.90;4.50;;;;;;;31.54;35.50;100817.67;1825897;77;20926;-90
2022/06/18 07:28:10;;;;;;;4.70;3.10;;;;;;;31.62;35.70;100817.05;1825910;77;21346;-90
2022/06/18 07:30:36;;;;;;;3.33;2.55;;;;;;;31.70;34.69;100814.05;1825801;77;21479;-90
2022/06/18 07:33:03;;;;;;;3.37;2.62;;;;;;;31.81;33.84;100812.75;1825637;78;21346;-88
2022/06/18 07:35:34;;;;;;;2.72;2.30;;;;;;;31.97;33.69;100815.92;1825670;78;20903;-88
2022/06/18 07:38:01;;;;;;;4.97;2.58;;;;;;;32.18;33.43;100815.42;1825654;77;20856;-88
2022/06/18 07:40:32;;;;;;;4.00;3.45;;;;;;;32.37;33.06;100814.00;1825730;77;21046;-88
2022/06/18 07:42:59;;;;;;;6.90;5.12;;;;;;;32.37;33.19;100809.92;1825706;78;21809;-88
2022/06/18 07:45:27;;;;;;;5.65;4.45;;;;;;;32.29;33.69;100819.78;1825013;78;20986;-91
2022/06/18 07:47:53;;;;;;;6.12;3.60;;;;;;;32.12;33.93;100814.16;1825620;78;20888;-90
2022/06/18 07:50:21;;;;;;;59.80;53.95;;;;;;;31.97;34.37;100815.41;1827905;78;21119;-89
2022/06/18 07:52:48;;;;;;;14.47;11.38;;;;;;;31.84;34.33;100812.84;1828373;78;20882;-89
2022/06/18 07:55:20;;;;;;;5.25;4.58;;;;;;;31.59;33.38;100811.56;1827995;77;20867;-89
2022/06/18 07:57:47;;;;;;;4.67;3.55;;;;;;;31.33;33.69;100816.21;1827808;77;20915;-90
2022/06/18 08:00:19;;;;;;;6.12;3.25;;;;;;;31.14;34.30;100816.70;1827809;77;20895;-89
2022/06/18 08:02:46;;;;;;;6.43;2.80;;;;;;;31.00;34.79;100818.42;1828063;77;20959;-88
2022/06/18 08:05:21;;;;;;;2.65;2.22;;;;;;;30.84;33.61;100811.63;1827847;77;20967;-88
2022/06/18 08:07:48;;;;;;;3.40;2.40;;;;;;;30.76;34.03;100813.58;1828434;77;21245;-89
2022/06/18 08:10:15;;;;;;;4.60;2.77;;;;;;;30.96;34.16;100814.79;1827859;77;20923;-88
2022/06/18 08:12:41;;;;;;;4.95;2.30;;;;;;;31.27;33.78;100817.64;1827717;77;21101;-89
2022/06/18 08:15:09;;;;;;;2.87;2.08;;;;;;;31.58;33.40;100813.45;1827484;77;20982;-91
2022/06/18 08:17:36;;;;;;;15.53;2.30;;;;;;;31.75;32.46;100808.26;1827800;77;20958;-89
2022/06/18 08:20:04;;;;;;;3.40;2.10;;;;;;;31.78;32.48;100804.25;1827930;77;21100;-89
2022/06/18 08:22:31;;;;;;;2.50;2.27;;;;;;;31.86;32.73;100801.74;1828404;78;20879;-88
2022/06/18 08:24:58;;;;;;;4.22;1.82;;;;;;;31.96;32.51;100806.93;1828434;78;20947;-89
2022/06/18 08:27:25;;;;;;;4.80;1.90;;;;;;;32.04;32.30;100811.26;1774895;78;20998;-89
2022/06/18 08:29:51;;;;;;;3.05;1.90;;;;;;;32.07;32.05;100803.18;1828576;78;20966;-90
2022/06/18 08:32:19;;;;;;;2.15;1.60;;;;;;;32.10;32.13;100806.78;1828214;77;21105;-90
2022/06/18 08:34:45;;;;;;;5.60;1.72;;;;;;;32.09;31.78;100808.67;1828000;77;20929;-88
2022/06/18 08:37:12;;;;;;;3.92;1.95;;;;;;;32.18;31.78;100807.28;1828565;77;20903;-90
2022/06/18 08:39:39;;;;;;;3.15;1.70;;;;;;;32.29;32.37;100804.85;1828469;77;20880;-90
2022/06/18 08:42:27;;;;;;;2.17;1.62;;;;;;;32.56;31.90;100804.75;1828049;77;20970;-90
2022/06/18 08:45:15;;;;;;;4.58;1.80;;;;;;;32.80;31.55;100802.08;1827973;76;21017;-90
2022/06/18 08:48:04;;;;;;;3.55;1.65;;;;;;;32.83;30.90;100801.59;1828482;76;20936;-89
2022/06/18 08:50:41;;;;;;;3.37;1.37;;;;;;;32.71;31.02;100800.78;1825489;78;20869;-88
2022/06/18 08:53:34;;;;;;;2.85;1.57;;;;;;;32.50;31.00;100800.22;1826007;78;20927;-86
2022/06/18 08:56:28;;;;;;;3.27;1.35;;;;;;;32.18;31.41;100799.14;1826130;77;20891;-89
2022/06/18 08:59:09;;;;;;;3.90;1.75;;;;;;;31.91;31.51;100800.02;1824829;77;21018;-90
2022/06/18 09:01:48;;;;;;;1.82;1.42;;;;;;;31.64;32.43;100792.75;1825763;78;20966;-89
2022/06/18 09:04:42;;;;;;;1.27;0.80;;;;;;;31.39;31.62;100799.06;1825251;77;20943;-88
2022/06/18 09:07:17;;;;;;;1.10;0.98;;;;;;;31.28;31.06;100793.03;1825535;78;20880;-89
2022/06/18 09:10:20;;;;;;;2.62;0.95;;;;;;;31.19;30.23;100799.77;1825463;77;21446;-88
2022/06/18 09:13:11;;;;;;;2.08;1.15;;;;;;;31.11;29.99;100795.48;1824438;78;21179;-89
2022/06/18 09:15:45;;;;;;;2.22;2.02;;;;;;;31.06;30.03;100800.75;1825534;77;20860;-90
2022/06/18 09:18:18;;;;;;;1.22;0.80;;;;;;;31.15;30.27;100795.34;1825519;78;21358;-89
2022/06/18 09:20:54;;;;;;;1.47;0.87;;;;;;;31.47;29.80;100785.75;1825698;77;20986;-89
2022/06/18 09:23:43;;;;;;;3.02;1.17;;;;;;;31.94;28.98;100783.80;1825714;77;21022;-90
2022/06/18 09:26:15;;;;;;;1.00;0.80;;;;;;;32.41;29.13;100785.33;1759090;81;21250;-89
2022/06/18 09:28:56;;;;;;;4.42;0.93;;;;;;;32.94;27.57;100778.22;1759077;81;20952;-91
2022/06/18 09:31:35;;;;;;;3.87;0.82;;;;;;;33.40;27.67;100783.34;1758647;81;21457;-92
2022/06/18 09:34:18;;;;;;;5.95;1.30;;;;;;;33.80;27.17;100783.91;1758345;80;20889;-91
2022/06/18 09:36:49;;;;;;;1.00;0.68;;;;;;;34.14;26.68;100787.56;1759645;81;21000;-90
2022/06/18 09:39:24;;;;;;;3.45;0.90;;;;;;;34.36;26.84;100781.41;1759563;81;21235;-89
2022/06/18 09:42:10;;;;;;;1.12;0.75;;;;;;;34.44;26.43;100782.34;1744898;81;20903;-88
2022/06/18 09:44:53;;;;;;;2.05;0.57;;;;;;;34.52;25.92;100779.77;1731297;81;20966;-89
2022/06/18 09:47:42;;;;;;;4.58;0.80;;;;;;;34.61;25.58;100770.10;1730967;80;20915;-91
2022/06/18 09:50:25;;;;;;;1.15;0.60;;;;;;;34.52;25.82;100773.77;1731191;80;20963;-90
2022/06/18 09:53:09;;;;;;;2.25;0.70;;;;;;;34.52;25.75;100775.68;1731265;81;21023;-91
2022/06/18 09:56:10;;;;;;;0.85;0.75;;;;;;;34.51;25.48;100774.02;1730886;80;20963;-89
2022/06/18 09:58:49;;;;;;;1.47;0.65;;;;;;;34.50;25.12;100775.09;1714873;82;21028;-90
2022/06/18 10:01:32;;;;;;;1.50;0.60;;;;;;;34.50;25.28;100772.37;1715489;83;21576;-90
2022/06/18 10:06:57;;;;;;;2.98;1.32;;;;;;;34.36;25.41;100771.88;1718978;82;21152;-90
2022/06/18 10:09:47;;;;;;;2.00;0.88;;;;;;;34.16;25.48;100766.37;1718756;83;20935;-90
2022/06/18 10:12:34;;;;;;;4.10;1.55;;;;;;;34.06;26.39;100765.63;1718682;82;20923;-88
2022/06/18 10:15:08;;;;;;;2.58;0.70;;;;;;;34.14;26.53;100764.42;1718723;82;20951;-89
2022/06/18 10:18:17;;;;;;;1.75;1.12;;;;;;;34.23;26.43;100763.48;1718854;82;21046;-89
2022/06/18 10:20:54;;;;;;;4.75;0.98;;;;;;;34.36;26.27;100761.81;1718724;82;21088;-89
2022/06/18 10:23:55;;;;;;;2.00;0.90;;;;;;;34.51;25.77;100757.67;1718921;81;20939;-91
2022/06/18 10:26:44;;;;;;;2.12;0.80;;;;;;;34.61;25.66;100757.84;1718824;83;21093;-92
2022/06/18 10:29:31;;;;;;;2.90;0.80;;;;;;;34.82;25.64;100753.58;1719011;82;20939;-89
2022/06/18 10:32:32;;;;;;;5.72;1.17;;;;;;;34.95;24.90;100749.13;1719305;83;20906;-90
2022/06/18 10:35:23;;;;;;;2.02;1.30;;;;;;;34.94;26.01;100748.83;1781786;79;21273;-92
2022/06/18 10:38:12;;;;;;;1.50;1.00;;;;;;;34.87;26.10;100745.47;1798348;78;20907;-91
2022/06/18 10:41:10;;;;;;;2.15;1.22;;;;;;;34.62;26.23;100748.64;1797797;79;20884;-91
2022/06/18 10:43:57;;;;;;;3.25;1.27;;;;;;;34.27;26.74;100746.95;1798250;78;20958;-90
2022/06/18 10:46:26;;;;;;;4.05;1.20;;;;;;;33.83;27.37;100754.84;1798260;79;21473;-90
2022/06/18 10:49:03;;;;;;;6.25;1.37;;;;;;;33.36;28.08;100759.88;1798612;77;21788;-90
2022/06/18 10:51:36;;;;;;;2.35;1.12;;;;;;;32.93;29.24;100761.09;1798588;78;20891;-90
2022/06/18 10:54:06;;;;;;;1.15;1.05;;;;;;;32.51;29.48;100757.09;1770692;79;20855;-91
2022/06/18 10:56:45;;;;;;;2.67;1.12;;;;;;;32.14;29.85;100757.23;1799438;79;20923;-91
2022/06/18 10:59:12;;;;;;;3.10;1.67;;;;;;;31.84;30.46;100765.38;1797811;78;20883;-89
2022/06/18 11:01:45;;;;;;;3.65;1.55;;;;;;;31.47;31.01;100761.34;1799096;78;21223;-89
2022/06/18 11:04:25;;;;;;;11.20;2.52;;;;;;;31.13;31.67;100760.88;1800921;78;20891;-90
2022/06/18 11:07:01;;;;;;;3.75;2.30;;;;;;;30.78;32.61;100758.67;1800412;77;20907;-92
2022/06/18 11:09:46;;;;;;;3.98;2.00;;;;;;;30.40;33.29;100757.44;1771498;78;20935;-89
2022/06/18 11:12:27;;;;;;;2.70;2.00;;;;;;;30.08;33.97;100761.48;1800241;78;20903;-90
2022/06/18 11:14:55;;;;;;;6.65;3.25;;;;;;;29.80;34.54;100768.59;1800224;77;21219;-90
2022/06/18 11:17:31;;;;;;;4.62;3.05;;;;;;;29.53;35.35;100756.52;1799866;77;20946;-90
2022/06/18 11:20:23;;;;;;;5.25;3.52;;;;;;;29.32;35.92;100762.20;1799763;78;20904;-89
2022/06/18 11:22:59;;;;;;;4.97;4.30;;;;;;;29.10;36.10;100760.27;1800568;77;20868;-88
2022/06/18 11:25:37;;;;;;;8.93;5.33;;;;;;;28.85;36.65;100768.17;1799500;77;20915;-89
2022/06/18 11:28:15;;;;;;;5.72;4.55;;;;;;;28.67;37.42;100764.23;1793902;77;21316;-89
2022/06/18 11:30:45;;;;;;;5.62;4.40;;;;;;;28.49;38.06;100755.94;1800023;77;20946;-89
2022/06/18 11:33:42;;;;;;;7.72;4.50;;;;;;;28.35;38.45;100759.12;1799856;77;20906;-89
2022/06/18 11:36:18;;;;;;;15.60;5.87;;;;;;;28.17;38.64;100752.13;1799738;77;20977;-90
2022/06/18 11:38:57;;;;;;;22.82;8.50;;;;;;;27.90;39.60;100752.91;1800483;77;21044;-89
2022/06/18 11:41:38;;;;;;;8.93;6.47;;;;;;;27.72;40.92;100754.46;1802527;77;21086;-90
2022/06/18 11:44:34;;;;;;;8.93;5.65;;;;;;;27.53;41.54;100765.48;1823634;77;20974;-89
2022/06/18 11:47:18;;;;;;;8.45;6.12;;;;;;;27.33;42.63;100766.73;1824484;77;20892;-90
2022/06/18 11:50:09;;;;;;;6.33;5.45;;;;;;;27.08;43.93;100772.03;1823955;77;21129;-89
2022/06/18 11:52:44;;;;;;;8.35;4.20;;;;;;;26.86;44.58;100783.89;1824394;77;20950;-89
2022/06/18 11:57:51;;;;;;;6.30;4.58;;;;;;;26.47;45.92;100779.27;1856930;77;22453;-89
2022/06/18 12:00:25;;;;;;;6.40;4.00;;;;;;;26.24;46.93;100769.23;1822498;78;21033;-89